sensor_id;sensor_type;location;lat;lon;timestamp;P1;durP1;ratioP1;P2;durP2;ratioP2
62030;SDS011;62035;52.094;5.112;2022-08-21T00:00:29;4.80;;;2.58;;
62030;SDS011;62035;52.094;5.112;2022-08-21T00:02:58;7.90;;;3.10;;
62030;SDS011;62035;52.094;5.112;2022-08-21T00:05:28;8.00;;;3.17;;
62030;SDS011;62035;52.094;5.112;2022-08-21T00:07:58;11.15;;;3.75;;
62030;SDS011;62035;52.094;5.112;2022-08-21T00:10:27;10.82;;;3.78;;
62030;SDS011;62035;52.094;5.112;2022-08-21T00:12:54;10.38;;;4.28;;
62030;SDS011;62035;52.094;5.112;2022-08-21T00:15:24;8.40;;;4.70;;
62030;SDS011;62035;52.094;5.112;2022-08-21T00:17:55;6.32;;;2.85;;
62030;SDS011;62035;52.094;5.112;2022-08-21T00:20:24;9.05;;;3.38;;
62030;SDS011;62035;52.094;5.112;2022-08-21T00:22:52;4.97;;;3.10;;
62030;SDS011;62035;52.094;5.112;2022-08-21T00:25:20;7.65;;;3.08;;
62030;SDS011;62035;52.094;5.112;2022-08-21T00:27:49;8.88;;;3.85;;
62030;SDS011;62035;52.094;5.112;2022-08-21T00:30:18;7.78;;;2.97;;
62030;SDS011;62035;52.094;5.112;2022-08-21T00:32:47;9.07;;;3.70;;
62030;SDS011;62035;52.094;5.112;2022-08-21T00:35:16;11.02;;;3.58;;
62030;SDS011;62035;52.094;5.112;2022-08-21T00:37:47;9.55;;;4.15;;
62030;SDS011;62035;52.094;5.112;2022-08-21T00:40:16;8.43;;;3.88;;
62030;SDS011;62035;52.094;5.112;2022-08-21T00:42:51;7.72;;;3.15;;
62030;SDS011;62035;52.094;5.112;2022-08-21T00:45:19;7.65;;;2.95;;
62030;SDS011;62035;52.094;5.112;2022-08-21T00:47:47;8.07;;;2.60;;
62030;SDS011;62035;52.094;5.112;2022-08-21T00:50:15;8.13;;;3.53;;
62030;SDS011;62035;52.094;5.112;2022-08-21T00:52:44;13.10;;;4.57;;
62030;SDS011;62035;52.094;5.112;2022-08-21T00:55:13;10.65;;;3.22;;
62030;SDS011;62035;52.094;5.112;2022-08-21T00:57:44;6.57;;;2.78;;
62030;SDS011;62035;52.094;5.112;2022-08-21T01:00:23;6.15;;;2.90;;
62030;SDS011;62035;52.094;5.112;2022-08-21T01:02:59;6.78;;;3.10;;
62030;SDS011;62035;52.094;5.112;2022-08-21T01:05:32;7.68;;;2.70;;
62030;SDS011;62035;52.094;5.112;2022-08-21T01:08:00;12.32;;;4.03;;
62030;SDS011;62035;52.094;5.112;2022-08-21T01:10:28;10.45;;;3.60;;
62030;SDS011;62035;52.094;5.112;2022-08-21T01:12:58;6.53;;;2.80;;
62030;SDS011;62035;52.094;5.112;2022-08-21T01:15:27;8.13;;;3.00;;
62030;SDS011;62035;52.094;5.112;2022-08-21T01:18:00;9.40;;;3.40;;
62030;SDS011;62035;52.094;5.112;2022-08-21T01:20:29;7.65;;;3.13;;
62030;SDS011;62035;52.094;5.112;2022-08-21T01:22:59;7.05;;;2.65;;
62030;SDS011;62035;52.094;5.112;2022-08-21T01:25:27;7.00;;;2.63;;
62030;SDS011;62035;52.094;5.112;2022-08-21T01:27:55;7.85;;;2.80;;
62030;SDS011;62035;52.094;5.112;2022-08-21T01:30:26;5.95;;;2.88;;
62030;SDS011;62035;52.094;5.112;2022-08-21T01:32:55;6.47;;;2.38;;
62030;SDS011;62035;52.094;5.112;2022-08-21T01:35:23;6.63;;;2.40;;
62030;SDS011;62035;52.094;5.112;2022-08-21T01:37:51;10.60;;;2.97;;
62030;SDS011;62035;52.094;5.112;2022-08-21T01:40:20;10.57;;;2.60;;
62030;SDS011;62035;52.094;5.112;2022-08-21T01:42:48;9.15;;;3.10;;
62030;SDS011;62035;52.094;5.112;2022-08-21T01:45:15;7.78;;;2.75;;
62030;SDS011;62035;52.094;5.112;2022-08-21T01:47:44;6.40;;;2.60;;
62030;SDS011;62035;52.094;5.112;2022-08-21T01:50:13;6.70;;;2.70;;
62030;SDS011;62035;52.094;5.112;2022-08-21T01:52:43;10.02;;;2.70;;
62030;SDS011;62035;52.094;5.112;2022-08-21T01:55:11;9.13;;;2.70;;
62030;SDS011;62035;52.094;5.112;2022-08-21T01:57:43;6.80;;;2.55;;
62030;SDS011;62035;52.094;5.112;2022-08-21T02:00:13;7.93;;;2.40;;
62030;SDS011;62035;52.094;5.112;2022-08-21T02:02:46;7.55;;;2.63;;
62030;SDS011;62035;52.094;5.112;2022-08-21T02:05:14;18.30;;;3.83;;
62030;SDS011;62035;52.094;5.112;2022-08-21T02:07:43;7.22;;;2.20;;
62030;SDS011;62035;52.094;5.112;2022-08-21T02:10:16;10.07;;;2.53;;
62030;SDS011;62035;52.094;5.112;2022-08-21T02:12:50;6.13;;;2.40;;
62030;SDS011;62035;52.094;5.112;2022-08-21T02:15:18;6.53;;;2.60;;
62030;SDS011;62035;52.094;5.112;2022-08-21T02:17:47;6.80;;;3.03;;
62030;SDS011;62035;52.094;5.112;2022-08-21T02:20:19;9.95;;;3.20;;
62030;SDS011;62035;52.094;5.112;2022-08-21T02:22:53;6.82;;;2.80;;
62030;SDS011;62035;52.094;5.112;2022-08-21T02:25:21;5.13;;;2.60;;
62030;SDS011;62035;52.094;5.112;2022-08-21T02:27:52;7.93;;;2.72;;
62030;SDS011;62035;52.094;5.112;2022-08-21T02:30:23;11.52;;;3.45;;
62030;SDS011;62035;52.094;5.112;2022-08-21T02:32:54;10.18;;;3.20;;
62030;SDS011;62035;52.094;5.112;2022-08-21T02:35:22;11.18;;;4.00;;
62030;SDS011;62035;52.094;5.112;2022-08-21T02:37:54;12.07;;;2.97;;
62030;SDS011;62035;52.094;5.112;2022-08-21T02:40:26;15.63;;;3.72;;
62030;SDS011;62035;52.094;5.112;2022-08-21T02:42:59;8.15;;;4.05;;
62030;SDS011;62035;52.094;5.112;2022-08-21T02:45:29;9.30;;;4.05;;
62030;SDS011;62035;52.094;5.112;2022-08-21T02:47:58;7.10;;;3.08;;
62030;SDS011;62035;52.094;5.112;2022-08-21T02:50:30;7.18;;;3.75;;
62030;SDS011;62035;52.094;5.112;2022-08-21T02:53:03;7.90;;;2.97;;
62030;SDS011;62035;52.094;5.112;2022-08-21T02:55:33;9.50;;;3.70;;
62030;SDS011;62035;52.094;5.112;2022-08-21T02:58:04;9.00;;;2.65;;
62030;SDS011;62035;52.094;5.112;2022-08-21T03:00:34;9.65;;;2.78;;
62030;SDS011;62035;52.094;5.112;2022-08-21T03:03:04;6.20;;;2.90;;
62030;SDS011;62035;52.094;5.112;2022-08-21T03:05:33;9.20;;;2.60;;
62030;SDS011;62035;52.094;5.112;2022-08-21T03:08:04;6.55;;;2.78;;
62030;SDS011;62035;52.094;5.112;2022-08-21T03:10:35;7.78;;;2.53;;
62030;SDS011;62035;52.094;5.112;2022-08-21T03:13:05;12.57;;;5.50;;
62030;SDS011;62035;52.094;5.112;2022-08-21T03:15:33;13.60;;;3.63;;
62030;SDS011;62035;52.094;5.112;2022-08-21T03:18:01;7.20;;;2.75;;
62030;SDS011;62035;52.094;5.112;2022-08-21T03:20:30;15.25;;;3.75;;
62030;SDS011;62035;52.094;5.112;2022-08-21T03:22:59;8.98;;;3.10;;
62030;SDS011;62035;52.094;5.112;2022-08-21T03:25:29;5.82;;;2.60;;
62030;SDS011;62035;52.094;5.112;2022-08-21T03:27:58;8.30;;;2.70;;
62030;SDS011;62035;52.094;5.112;2022-08-21T03:30:27;7.10;;;3.08;;
62030;SDS011;62035;52.094;5.112;2022-08-21T03:32:56;6.95;;;3.25;;
62030;SDS011;62035;52.094;5.112;2022-08-21T03:35:25;9.30;;;2.92;;
62030;SDS011;62035;52.094;5.112;2022-08-21T03:37:54;7.38;;;3.28;;
62030;SDS011;62035;52.094;5.112;2022-08-21T03:40:22;7.28;;;3.03;;
62030;SDS011;62035;52.094;5.112;2022-08-21T03:42:51;11.18;;;2.83;;
62030;SDS011;62035;52.094;5.112;2022-08-21T03:45:19;11.32;;;2.90;;
62030;SDS011;62035;52.094;5.112;2022-08-21T03:47:53;10.70;;;3.05;;
62030;SDS011;62035;52.094;5.112;2022-08-21T03:50:24;9.88;;;2.92;;
62030;SDS011;62035;52.094;5.112;2022-08-21T03:55:23;8.93;;;3.42;;
62030;SDS011;62035;52.094;5.112;2022-08-21T03:57:52;12.73;;;3.20;;
62030;SDS011;62035;52.094;5.112;2022-08-21T04:00:20;9.52;;;3.22;;
62030;SDS011;62035;52.094;5.112;2022-08-21T04:02:49;7.95;;;3.10;;
62030;SDS011;62035;52.094;5.112;2022-08-21T04:05:18;6.38;;;3.25;;
62030;SDS011;62035;52.094;5.112;2022-08-21T04:07:54;11.88;;;4.57;;
62030;SDS011;62035;52.094;5.112;2022-08-21T04:10:24;7.77;;;3.37;;
62030;SDS011;62035;52.094;5.112;2022-08-21T04:12:54;7.55;;;3.22;;
62030;SDS011;62035;52.094;5.112;2022-08-21T04:15:22;8.63;;;3.70;;
62030;SDS011;62035;52.094;5.112;2022-08-21T04:17:51;9.88;;;3.80;;
62030;SDS011;62035;52.094;5.112;2022-08-21T04:20:22;8.43;;;3.90;;
62030;SDS011;62035;52.094;5.112;2022-08-21T04:22:50;7.03;;;3.90;;
62030;SDS011;62035;52.094;5.112;2022-08-21T04:25:19;7.60;;;3.38;;
62030;SDS011;62035;52.094;5.112;2022-08-21T04:27:49;7.25;;;3.25;;
62030;SDS011;62035;52.094;5.112;2022-08-21T04:30:17;6.68;;;3.28;;
62030;SDS011;62035;52.094;5.112;2022-08-21T04:32:45;8.70;;;3.78;;
62030;SDS011;62035;52.094;5.112;2022-08-21T04:37:49;6.65;;;3.00;;
62030;SDS011;62035;52.094;5.112;2022-08-21T04:40:17;8.02;;;3.30;;
62030;SDS011;62035;52.094;5.112;2022-08-21T04:42:48;11.77;;;4.13;;
62030;SDS011;62035;52.094;5.112;2022-08-21T04:45:19;6.50;;;2.50;;
62030;SDS011;62035;52.094;5.112;2022-08-21T04:50:18;8.85;;;3.22;;
62030;SDS011;62035;52.094;5.112;2022-08-21T04:52:50;10.30;;;3.25;;
62030;SDS011;62035;52.094;5.112;2022-08-21T04:55:18;9.68;;;3.70;;
62030;SDS011;62035;52.094;5.112;2022-08-21T04:57:48;8.60;;;3.40;;
62030;SDS011;62035;52.094;5.112;2022-08-21T05:00:19;10.32;;;3.15;;
62030;SDS011;62035;52.094;5.112;2022-08-21T05:02:50;11.50;;;3.40;;
62030;SDS011;62035;52.094;5.112;2022-08-21T05:05:22;8.00;;;3.17;;
62030;SDS011;62035;52.094;5.112;2022-08-21T05:07:52;10.75;;;3.25;;
62030;SDS011;62035;52.094;5.112;2022-08-21T05:10:21;7.63;;;3.03;;
62030;SDS011;62035;52.094;5.112;2022-08-21T05:12:49;12.52;;;4.07;;
62030;SDS011;62035;52.094;5.112;2022-08-21T05:15:17;10.30;;;3.60;;
62030;SDS011;62035;52.094;5.112;2022-08-21T05:17:45;9.88;;;3.55;;
62030;SDS011;62035;52.094;5.112;2022-08-21T05:20:12;11.10;;;3.33;;
62030;SDS011;62035;52.094;5.112;2022-08-21T05:22:41;10.25;;;3.40;;
62030;SDS011;62035;52.094;5.112;2022-08-21T05:25:10;9.60;;;3.30;;
62030;SDS011;62035;52.094;5.112;2022-08-21T05:27:39;8.85;;;3.90;;
62030;SDS011;62035;52.094;5.112;2022-08-21T05:30:08;10.23;;;3.38;;
62030;SDS011;62035;52.094;5.112;2022-08-21T05:32:37;7.18;;;2.90;;
62030;SDS011;62035;52.094;5.112;2022-08-21T05:35:05;14.07;;;3.80;;
62030;SDS011;62035;52.094;5.112;2022-08-21T05:37:35;9.77;;;3.15;;
62030;SDS011;62035;52.094;5.112;2022-08-21T05:40:03;12.00;;;4.10;;
62030;SDS011;62035;52.094;5.112;2022-08-21T05:42:34;13.70;;;3.55;;
62030;SDS011;62035;52.094;5.112;2022-08-21T05:45:02;11.18;;;4.15;;
62030;SDS011;62035;52.094;5.112;2022-08-21T05:47:30;9.60;;;3.20;;
62030;SDS011;62035;52.094;5.112;2022-08-21T05:49:57;8.63;;;3.80;;
62030;SDS011;62035;52.094;5.112;2022-08-21T05:52:25;9.27;;;3.50;;
62030;SDS011;62035;52.094;5.112;2022-08-21T05:54:52;12.18;;;3.47;;
62030;SDS011;62035;52.094;5.112;2022-08-21T05:57:20;10.30;;;3.60;;
62030;SDS011;62035;52.094;5.112;2022-08-21T05:59:50;13.43;;;3.80;;
62030;SDS011;62035;52.094;5.112;2022-08-21T06:02:18;12.35;;;3.58;;
62030;SDS011;62035;52.094;5.112;2022-08-21T06:04:48;13.85;;;3.20;;
62030;SDS011;62035;52.094;5.112;2022-08-21T06:07:15;8.77;;;3.38;;
62030;SDS011;62035;52.094;5.112;2022-08-21T06:09:43;14.35;;;4.05;;
62030;SDS011;62035;52.094;5.112;2022-08-21T06:12:11;10.98;;;3.65;;
62030;SDS011;62035;52.094;5.112;2022-08-21T06:14:40;12.85;;;3.30;;
62030;SDS011;62035;52.094;5.112;2022-08-21T06:17:11;9.40;;;3.85;;
62030;SDS011;62035;52.094;5.112;2022-08-21T06:19:41;11.35;;;3.50;;
62030;SDS011;62035;52.094;5.112;2022-08-21T06:22:09;14.13;;;3.47;;
62030;SDS011;62035;52.094;5.112;2022-08-21T06:24:36;14.57;;;3.80;;
62030;SDS011;62035;52.094;5.112;2022-08-21T06:27:04;11.73;;;3.50;;
62030;SDS011;62035;52.094;5.112;2022-08-21T06:29:33;10.65;;;2.97;;
62030;SDS011;62035;52.094;5.112;2022-08-21T06:32:02;12.82;;;3.25;;
62030;SDS011;62035;52.094;5.112;2022-08-21T06:34:35;8.70;;;3.20;;
62030;SDS011;62035;52.094;5.112;2022-08-21T06:37:04;13.45;;;3.15;;
62030;SDS011;62035;52.094;5.112;2022-08-21T06:39:32;11.52;;;3.42;;
62030;SDS011;62035;52.094;5.112;2022-08-21T06:42:00;7.78;;;3.30;;
62030;SDS011;62035;52.094;5.112;2022-08-21T06:44:28;14.10;;;3.88;;
62030;SDS011;62035;52.094;5.112;2022-08-21T06:46:57;10.75;;;3.40;;
62030;SDS011;62035;52.094;5.112;2022-08-21T06:49:25;12.93;;;3.63;;
62030;SDS011;62035;52.094;5.112;2022-08-21T06:51:54;14.52;;;3.97;;
62030;SDS011;62035;52.094;5.112;2022-08-21T06:54:21;13.10;;;3.10;;
62030;SDS011;62035;52.094;5.112;2022-08-21T06:56:49;10.45;;;2.95;;
62030;SDS011;62035;52.094;5.112;2022-08-21T06:59:16;11.77;;;3.60;;
62030;SDS011;62035;52.094;5.112;2022-08-21T07:01:45;18.27;;;3.60;;
62030;SDS011;62035;52.094;5.112;2022-08-21T07:04:13;11.27;;;3.35;;
62030;SDS011;62035;52.094;5.112;2022-08-21T07:06:41;9.82;;;2.90;;
62030;SDS011;62035;52.094;5.112;2022-08-21T07:09:10;12.38;;;3.85;;
62030;SDS011;62035;52.094;5.112;2022-08-21T07:11:37;19.90;;;3.78;;
62030;SDS011;62035;52.094;5.112;2022-08-21T07:14:05;12.63;;;3.20;;
62030;SDS011;62035;52.094;5.112;2022-08-21T07:16:33;10.50;;;3.45;;
62030;SDS011;62035;52.094;5.112;2022-08-21T07:19:00;8.73;;;3.65;;
62030;SDS011;62035;52.094;5.112;2022-08-21T07:21:28;13.48;;;3.60;;
62030;SDS011;62035;52.094;5.112;2022-08-21T07:23:55;15.60;;;3.05;;
62030;SDS011;62035;52.094;5.112;2022-08-21T07:26:25;14.93;;;3.35;;
62030;SDS011;62035;52.094;5.112;2022-08-21T07:28:52;8.88;;;3.33;;
62030;SDS011;62035;52.094;5.112;2022-08-21T07:31:21;15.02;;;3.50;;
62030;SDS011;62035;52.094;5.112;2022-08-21T07:33:51;13.23;;;3.72;;
62030;SDS011;62035;52.094;5.112;2022-08-21T07:36:19;12.43;;;3.40;;
62030;SDS011;62035;52.094;5.112;2022-08-21T07:38:47;14.73;;;3.22;;
62030;SDS011;62035;52.094;5.112;2022-08-21T07:41:16;13.63;;;3.42;;
62030;SDS011;62035;52.094;5.112;2022-08-21T07:43:47;18.17;;;3.85;;
62030;SDS011;62035;52.094;5.112;2022-08-21T07:46:16;13.38;;;4.13;;
62030;SDS011;62035;52.094;5.112;2022-08-21T07:48:44;14.02;;;3.65;;
62030;SDS011;62035;52.094;5.112;2022-08-21T07:51:12;15.55;;;3.50;;
62030;SDS011;62035;52.094;5.112;2022-08-21T07:56:16;14.23;;;3.13;;
62030;SDS011;62035;52.094;5.112;2022-08-21T07:58:44;14.45;;;3.40;;
62030;SDS011;62035;52.094;5.112;2022-08-21T08:01:13;9.30;;;3.63;;
62030;SDS011;62035;52.094;5.112;2022-08-21T08:03:41;11.02;;;3.45;;
62030;SDS011;62035;52.094;5.112;2022-08-21T08:06:11;12.18;;;3.40;;
62030;SDS011;62035;52.094;5.112;2022-08-21T08:08:39;14.02;;;3.67;;
62030;SDS011;62035;52.094;5.112;2022-08-21T08:11:08;23.15;;;4.80;;
62030;SDS011;62035;52.094;5.112;2022-08-21T08:13:38;15.25;;;3.60;;
62030;SDS011;62035;52.094;5.112;2022-08-21T08:16:07;17.60;;;3.88;;
62030;SDS011;62035;52.094;5.112;2022-08-21T08:18:36;12.50;;;3.97;;
62030;SDS011;62035;52.094;5.112;2022-08-21T08:21:04;10.73;;;3.42;;
62030;SDS011;62035;52.094;5.112;2022-08-21T08:23:33;12.93;;;3.83;;
62030;SDS011;62035;52.094;5.112;2022-08-21T08:26:07;11.98;;;3.50;;
62030;SDS011;62035;52.094;5.112;2022-08-21T08:28:35;11.48;;;3.53;;
62030;SDS011;62035;52.094;5.112;2022-08-21T08:31:03;14.85;;;3.45;;
62030;SDS011;62035;52.094;5.112;2022-08-21T08:33:31;19.23;;;4.00;;
62030;SDS011;62035;52.094;5.112;2022-08-21T08:36:00;11.57;;;3.28;;
62030;SDS011;62035;52.094;5.112;2022-08-21T08:38:28;17.15;;;3.47;;
62030;SDS011;62035;52.094;5.112;2022-08-21T08:40:58;14.65;;;3.85;;
62030;SDS011;62035;52.094;5.112;2022-08-21T08:43:33;11.20;;;3.90;;
62030;SDS011;62035;52.094;5.112;2022-08-21T08:46:03;10.70;;;3.53;;
62030;SDS011;62035;52.094;5.112;2022-08-21T08:48:40;14.48;;;3.47;;
62030;SDS011;62035;52.094;5.112;2022-08-21T08:51:18;15.45;;;3.28;;
62030;SDS011;62035;52.094;5.112;2022-08-21T08:53:52;11.70;;;3.55;;
62030;SDS011;62035;52.094;5.112;2022-08-21T08:56:28;18.67;;;3.65;;
62030;SDS011;62035;52.094;5.112;2022-08-21T08:59:00;13.75;;;3.30;;
62030;SDS011;62035;52.094;5.112;2022-08-21T09:01:35;16.10;;;3.47;;
62030;SDS011;62035;52.094;5.112;2022-08-21T09:04:03;13.27;;;3.28;;
62030;SDS011;62035;52.094;5.112;2022-08-21T09:06:41;7.82;;;3.03;;
62030;SDS011;62035;52.094;5.112;2022-08-21T09:12:02;17.88;;;4.68;;
62030;SDS011;62035;52.094;5.112;2022-08-21T09:17:33;12.80;;;3.03;;
62030;SDS011;62035;52.094;5.112;2022-08-21T09:20:17;12.07;;;3.15;;
62030;SDS011;62035;52.094;5.112;2022-08-21T09:23:00;16.92;;;3.03;;
62030;SDS011;62035;52.094;5.112;2022-08-21T09:25:51;12.38;;;2.75;;
62030;SDS011;62035;52.094;5.112;2022-08-21T09:28:31;7.10;;;2.20;;
62030;SDS011;62035;52.094;5.112;2022-08-21T09:33:32;9.52;;;2.60;;
62030;SDS011;62035;52.094;5.112;2022-08-21T09:36:00;14.15;;;2.97;;
62030;SDS011;62035;52.094;5.112;2022-08-21T09:38:30;11.82;;;2.30;;
62030;SDS011;62035;52.094;5.112;2022-08-21T09:41:02;15.70;;;3.63;;
62030;SDS011;62035;52.094;5.112;2022-08-21T09:43:32;11.25;;;2.53;;
62030;SDS011;62035;52.094;5.112;2022-08-21T09:46:03;11.13;;;2.60;;
62030;SDS011;62035;52.094;5.112;2022-08-21T09:48:39;7.82;;;2.28;;
62030;SDS011;62035;52.094;5.112;2022-08-21T09:51:12;9.90;;;1.98;;
62030;SDS011;62035;52.094;5.112;2022-08-21T09:53:45;11.10;;;2.55;;
62030;SDS011;62035;52.094;5.112;2022-08-21T09:56:19;9.70;;;2.90;;
62030;SDS011;62035;52.094;5.112;2022-08-21T09:59:15;9.05;;;2.10;;
62030;SDS011;62035;52.094;5.112;2022-08-21T10:01:52;10.90;;;2.38;;
62030;SDS011;62035;52.094;5.112;2022-08-21T10:04:22;12.75;;;2.70;;
62030;SDS011;62035;52.094;5.112;2022-08-21T10:07:05;10.50;;;2.10;;
62030;SDS011;62035;52.094;5.112;2022-08-21T10:09:36;10.57;;;2.28;;
62030;SDS011;62035;52.094;5.112;2022-08-21T10:12:08;6.72;;;2.10;;
62030;SDS011;62035;52.094;5.112;2022-08-21T10:14:50;14.73;;;3.10;;
62030;SDS011;62035;52.094;5.112;2022-08-21T10:17:30;12.93;;;2.60;;
62030;SDS011;62035;52.094;5.112;2022-08-21T10:20:11;11.70;;;2.17;;
62030;SDS011;62035;52.094;5.112;2022-08-21T10:22:51;9.00;;;2.08;;
62030;SDS011;62035;52.094;5.112;2022-08-21T10:25:41;8.57;;;2.25;;
62030;SDS011;62035;52.094;5.112;2022-08-21T10:28:17;6.72;;;2.40;;
62030;SDS011;62035;52.094;5.112;2022-08-21T10:30:58;10.25;;;2.15;;
62030;SDS011;62035;52.094;5.112;2022-08-21T10:33:38;12.07;;;2.13;;
62030;SDS011;62035;52.094;5.112;2022-08-21T10:36:18;12.23;;;2.13;;
62030;SDS011;62035;52.094;5.112;2022-08-21T10:38:55;6.70;;;1.70;;
62030;SDS011;62035;52.094;5.112;2022-08-21T10:44:23;10.50;;;1.98;;
62030;SDS011;62035;52.094;5.112;2022-08-21T10:47:05;9.07;;;2.35;;
62030;SDS011;62035;52.094;5.112;2022-08-21T10:49:43;7.55;;;1.90;;
62030;SDS011;62035;52.094;5.112;2022-08-21T10:52:25;7.30;;;1.85;;
62030;SDS011;62035;52.094;5.112;2022-08-21T10:55:09;9.27;;;1.80;;
62030;SDS011;62035;52.094;5.112;2022-08-21T10:57:46;11.75;;;2.42;;
62030;SDS011;62035;52.094;5.112;2022-08-21T11:00:18;5.78;;;1.70;;
62030;SDS011;62035;52.094;5.112;2022-08-21T11:02:51;8.88;;;2.00;;
62030;SDS011;62035;52.094;5.112;2022-08-21T11:05:37;7.78;;;2.22;;
62030;SDS011;62035;52.094;5.112;2022-08-21T11:08:11;7.50;;;2.10;;
62030;SDS011;62035;52.094;5.112;2022-08-21T11:10:45;13.35;;;2.63;;
62030;SDS011;62035;52.094;5.112;2022-08-21T11:16:10;9.88;;;2.30;;
62030;SDS011;62035;52.094;5.112;2022-08-21T11:18:49;7.07;;;2.00;;
62030;SDS011;62035;52.094;5.112;2022-08-21T11:21:27;12.65;;;2.40;;
62030;SDS011;62035;52.094;5.112;2022-08-21T11:24:09;9.23;;;2.63;;
62030;SDS011;62035;52.094;5.112;2022-08-21T11:26:57;6.72;;;2.00;;
62030;SDS011;62035;52.094;5.112;2022-08-21T11:29:34;8.93;;;3.05;;
62030;SDS011;62035;52.094;5.112;2022-08-21T11:32:11;9.43;;;2.40;;
62030;SDS011;62035;52.094;5.112;2022-08-21T11:35:17;9.57;;;1.90;;
62030;SDS011;62035;52.094;5.112;2022-08-21T11:38:00;7.30;;;2.15;;
62030;SDS011;62035;52.094;5.112;2022-08-21T11:40:52;8.68;;;2.00;;
62030;SDS011;62035;52.094;5.112;2022-08-21T11:43:37;12.68;;;2.38;;
62030;SDS011;62035;52.094;5.112;2022-08-21T11:46:16;8.18;;;2.25;;
62030;SDS011;62035;52.094;5.112;2022-08-21T11:49:00;7.38;;;2.13;;
62030;SDS011;62035;52.094;5.112;2022-08-21T11:52:02;6.13;;;2.00;;
62030;SDS011;62035;52.094;5.112;2022-08-21T11:54:43;8.63;;;2.63;;
62030;SDS011;62035;52.094;5.112;2022-08-21T11:57:18;10.25;;;2.17;;
62030;SDS011;62035;52.094;5.112;2022-08-21T11:59:51;8.45;;;2.45;;
62030;SDS011;62035;52.094;5.112;2022-08-21T12:02:31;6.60;;;1.77;;
62030;SDS011;62035;52.094;5.112;2022-08-21T12:05:05;10.73;;;2.00;;
62030;SDS011;62035;52.094;5.112;2022-08-21T12:07:38;8.05;;;1.80;;
62030;SDS011;62035;52.094;5.112;2022-08-21T12:10:09;6.50;;;2.35;;
62030;SDS011;62035;52.094;5.112;2022-08-21T12:12:40;6.93;;;2.00;;
62030;SDS011;62035;52.094;5.112;2022-08-21T12:15:25;4.82;;;1.85;;
62030;SDS011;62035;52.094;5.112;2022-08-21T12:17:58;13.10;;;2.17;;
62030;SDS011;62035;52.094;5.112;2022-08-21T12:20:35;10.57;;;2.67;;
62030;SDS011;62035;52.094;5.112;2022-08-21T12:26:22;10.77;;;1.60;;
62030;SDS011;62035;52.094;5.112;2022-08-21T12:29:13;5.05;;;2.00;;
62030;SDS011;62035;52.094;5.112;2022-08-21T12:31:53;10.70;;;2.10;;
62030;SDS011;62035;52.094;5.112;2022-08-21T12:34:31;11.05;;;2.17;;
62030;SDS011;62035;52.094;5.112;2022-08-21T12:37:04;9.07;;;2.40;;
62030;SDS011;62035;52.094;5.112;2022-08-21T12:39:46;6.53;;;1.67;;
62030;SDS011;62035;52.094;5.112;2022-08-21T12:42:20;6.97;;;1.70;;
62030;SDS011;62035;52.094;5.112;2022-08-21T12:44:54;9.93;;;2.10;;
62030;SDS011;62035;52.094;5.112;2022-08-21T12:47:29;9.90;;;2.33;;
62030;SDS011;62035;52.094;5.112;2022-08-21T12:50:05;9.05;;;1.95;;
62030;SDS011;62035;52.094;5.112;2022-08-21T12:52:39;6.60;;;1.98;;
62030;SDS011;62035;52.094;5.112;2022-08-21T12:55:15;6.35;;;2.00;;
62030;SDS011;62035;52.094;5.112;2022-08-21T12:57:54;7.82;;;1.90;;
62030;SDS011;62035;52.094;5.112;2022-08-21T13:00:23;11.18;;;2.00;;
62030;SDS011;62035;52.094;5.112;2022-08-21T13:02:54;7.68;;;2.30;;
62030;SDS011;62035;52.094;5.112;2022-08-21T13:05:29;12.07;;;2.20;;
62030;SDS011;62035;52.094;5.112;2022-08-21T13:08:03;6.95;;;2.05;;
62030;SDS011;62035;52.094;5.112;2022-08-21T13:10:33;8.38;;;2.17;;
62030;SDS011;62035;52.094;5.112;2022-08-21T13:13:09;6.00;;;2.08;;
62030;SDS011;62035;52.094;5.112;2022-08-21T13:15:44;12.23;;;1.92;;
62030;SDS011;62035;52.094;5.112;2022-08-21T13:18:19;5.28;;;1.95;;
62030;SDS011;62035;52.094;5.112;2022-08-21T13:20:51;8.93;;;1.90;;
62030;SDS011;62035;52.094;5.112;2022-08-21T13:23:29;9.05;;;2.33;;
62030;SDS011;62035;52.094;5.112;2022-08-21T13:25:58;6.68;;;2.00;;
62030;SDS011;62035;52.094;5.112;2022-08-21T13:28:34;8.07;;;1.80;;
62030;SDS011;62035;52.094;5.112;2022-08-21T13:31:05;11.18;;;2.40;;
62030;SDS011;62035;52.094;5.112;2022-08-21T13:33:37;6.85;;;1.80;;
62030;SDS011;62035;52.094;5.112;2022-08-21T13:36:09;10.75;;;3.22;;
62030;SDS011;62035;52.094;5.112;2022-08-21T13:38:52;8.70;;;2.22;;
62030;SDS011;62035;52.094;5.112;2022-08-21T13:41:21;5.65;;;1.50;;
62030;SDS011;62035;52.094;5.112;2022-08-21T13:43:56;6.28;;;1.83;;
62030;SDS011;62035;52.094;5.112;2022-08-21T13:46:29;5.43;;;1.77;;
62030;SDS011;62035;52.094;5.112;2022-08-21T13:49:02;7.72;;;2.20;;
62030;SDS011;62035;52.094;5.112;2022-08-21T13:51:34;7.97;;;2.00;;
62030;SDS011;62035;52.094;5.112;2022-08-21T13:54:13;11.90;;;2.00;;
62030;SDS011;62035;52.094;5.112;2022-08-21T13:56:47;8.05;;;1.80;;
62030;SDS011;62035;52.094;5.112;2022-08-21T13:59:23;8.77;;;2.38;;
62030;SDS011;62035;52.094;5.112;2022-08-21T14:01:54;5.45;;;1.98;;
62030;SDS011;62035;52.094;5.112;2022-08-21T14:04:29;5.95;;;2.00;;
62030;SDS011;62035;52.094;5.112;2022-08-21T14:07:14;7.38;;;2.33;;
62030;SDS011;62035;52.094;5.112;2022-08-21T14:09:45;7.32;;;1.95;;
62030;SDS011;62035;52.094;5.112;2022-08-21T14:12:14;7.20;;;1.92;;
62030;SDS011;62035;52.094;5.112;2022-08-21T14:14:46;6.70;;;1.98;;
62030;SDS011;62035;52.094;5.112;2022-08-21T14:17:14;7.53;;;1.80;;
62030;SDS011;62035;52.094;5.112;2022-08-21T14:19:55;6.43;;;1.60;;
62030;SDS011;62035;52.094;5.112;2022-08-21T14:22:29;8.02;;;1.80;;
62030;SDS011;62035;52.094;5.112;2022-08-21T14:25:11;7.90;;;1.90;;
62030;SDS011;62035;52.094;5.112;2022-08-21T14:27:42;8.13;;;2.13;;
62030;SDS011;62035;52.094;5.112;2022-08-21T14:30:20;6.85;;;2.10;;
62030;SDS011;62035;52.094;5.112;2022-08-21T14:32:59;6.13;;;2.33;;
62030;SDS011;62035;52.094;5.112;2022-08-21T14:35:27;14.10;;;4.40;;
62030;SDS011;62035;52.094;5.112;2022-08-21T14:37:57;7.50;;;1.70;;
62030;SDS011;62035;52.094;5.112;2022-08-21T14:40:25;5.57;;;1.70;;
62030;SDS011;62035;52.094;5.112;2022-08-21T14:42:53;8.18;;;1.88;;
62030;SDS011;62035;52.094;5.112;2022-08-21T14:45:25;6.13;;;2.08;;
62030;SDS011;62035;52.094;5.112;2022-08-21T14:47:55;4.72;;;1.90;;
62030;SDS011;62035;52.094;5.112;2022-08-21T14:50:25;4.38;;;1.83;;
62030;SDS011;62035;52.094;5.112;2022-08-21T14:52:53;6.05;;;2.05;;
62030;SDS011;62035;52.094;5.112;2022-08-21T14:55:23;6.15;;;1.85;;
62030;SDS011;62035;52.094;5.112;2022-08-21T14:57:51;6.60;;;1.90;;
62030;SDS011;62035;52.094;5.112;2022-08-21T15:00:23;6.15;;;1.77;;
62030;SDS011;62035;52.094;5.112;2022-08-21T15:02:52;9.48;;;2.22;;
62030;SDS011;62035;52.094;5.112;2022-08-21T15:05:19;8.18;;;1.75;;
62030;SDS011;62035;52.094;5.112;2022-08-21T15:07:47;7.10;;;1.80;;
62030;SDS011;62035;52.094;5.112;2022-08-21T15:10:14;9.27;;;1.80;;
62030;SDS011;62035;52.094;5.112;2022-08-21T15:12:43;5.93;;;1.70;;
62030;SDS011;62035;52.094;5.112;2022-08-21T15:15:11;5.43;;;1.77;;
62030;SDS011;62035;52.094;5.112;2022-08-21T15:17:38;6.85;;;1.60;;
62030;SDS011;62035;52.094;5.112;2022-08-21T15:20:06;6.18;;;2.15;;
62030;SDS011;62035;52.094;5.112;2022-08-21T15:22:36;6.82;;;1.80;;
62030;SDS011;62035;52.094;5.112;2022-08-21T15:25:04;8.93;;;2.17;;
62030;SDS011;62035;52.094;5.112;2022-08-21T15:27:32;6.20;;;1.90;;
62030;SDS011;62035;52.094;5.112;2022-08-21T15:30:02;6.40;;;1.88;;
62030;SDS011;62035;52.094;5.112;2022-08-21T15:32:31;6.78;;;1.98;;
62030;SDS011;62035;52.094;5.112;2022-08-21T15:34:59;5.80;;;1.70;;
62030;SDS011;62035;52.094;5.112;2022-08-21T15:37:27;5.97;;;1.80;;